Time;durP1;ratioP1;P1;durP2;ratioP2;P2;SDS_P1;SDS_P2;PMS_P1;PMS_P2;Temp;Humidity;BMP_temperature;BMP_pressure;BME280_temperature;BME280_humidity;BME280_pressure;Samples;Min_cycle;Max_cycle;Signal;HPM_P1;HPM_P2
2022/05/19 00:01:15;;;;;;;7.15;4.78;;;;;;;;;;5081170;28;20433;-66
2022/05/19 00:03:41;;;;;;;6.43;4.07;;;;;;;;;;5081039;28;20023;-69
2022/05/19 00:06:08;;;;;;;6.82;4.20;;;;;;;;;;5100471;28;21959;-65
2022/05/19 00:08:34;;;;;;;8.25;4.50;;;;;;;;;;5093302;28;20032;-70
2022/05/19 00:11:02;;;;;;;6.05;3.95;;;;;;;;;;5086596;28;20495;-69
2022/05/19 00:13:28;;;;;;;7.45;4.28;;;;;;;;;;5089316;28;20036;-70
2022/05/19 00:15:54;;;;;;;8.75;4.25;;;;;;;;;;5088909;28;20032;-70
2022/05/19 00:18:20;;;;;;;7.90;3.83;;;;;;;;;;5095846;28;20095;-69
2022/05/19 00:20:46;;;;;;;6.85;3.65;;;;;;;;;;5090086;28;20103;-70
2022/05/19 00:23:13;;;;;;;6.60;3.80;;;;;;;;;;5092211;28;20031;-69
2022/05/19 00:25:39;;;;;;;7.28;4.10;;;;;;;;;;5080448;28;20416;-70
2022/05/19 00:28:05;;;;;;;6.10;3.72;;;;;;;;;;5093870;28;20042;-69
2022/05/19 00:30:32;;;;;;;7.47;3.50;;;;;;;;;;5084803;28;20389;-70
2022/05/19 00:32:57;;;;;;;5.75;3.53;;;;;;;;;;5096541;28;20065;-69
2022/05/19 00:35:23;;;;;;;5.90;3.60;;;;;;;;;;5083927;28;20097;-68
2022/05/19 00:37:49;;;;;;;5.20;3.22;;;;;;;;;;5098072;28;20035;-70
2022/05/19 00:40:17;;;;;;;6.05;3.58;;;;;;;;;;5081095;28;20051;-70
2022/05/19 00:42:43;;;;;;;5.18;3.40;;;;;;;;;;5088085;28;20035;-70
2022/05/19 00:45:10;;;;;;;4.97;3.22;;;;;;;;;;5095439;28;20036;-70
2022/05/19 00:47:41;;;;;;;5.40;3.50;;;;;;;;;;5092795;28;20082;-68
2022/05/19 00:50:08;;;;;;;9.00;3.70;;;;;;;;;;5088937;28;20106;-70
2022/05/19 00:52:38;;;;;;;6.13;3.38;;;;;;;;;;5093816;28;20020;-70
2022/05/19 00:55:25;;;;;;;5.63;3.95;;;;;;;;;;5084158;28;20052;-70
2022/05/19 00:57:54;;;;;;;5.50;3.47;;;;;;;;;;5098261;28;20024;-70
2022/05/19 01:00:21;;;;;;;5.35;3.35;;;;;;;;;;5092847;28;20073;-71
2022/05/19 01:02:58;;;;;;;4.70;3.30;;;;;;;;;;5079495;28;20032;-70
2022/05/19 01:05:27;;;;;;;6.55;3.58;;;;;;;;;;5084574;28;20383;-67
2022/05/19 01:07:53;;;;;;;6.97;3.47;;;;;;;;;;5090691;28;20065;-70
2022/05/19 01:10:19;;;;;;;5.45;3.22;;;;;;;;;;5082223;28;20031;-71
2022/05/19 01:12:47;;;;;;;5.53;3.53;;;;;;;;;;5085071;28;20475;-70
2022/05/19 01:15:13;;;;;;;5.68;3.40;;;;;;;;;;5090043;28;20025;-70
2022/05/19 01:17:39;;;;;;;5.90;3.53;;;;;;;;;;5077248;28;20056;-70
2022/05/19 01:20:11;;;;;;;6.57;3.33;;;;;;;;;;5076480;28;20150;-71
2022/05/19 01:22:41;;;;;;;9.15;3.50;;;;;;;;;;5075645;28;20033;-69
2022/05/19 01:25:10;;;;;;;5.43;3.60;;;;;;;;;;5099536;28;20111;-69
2022/05/19 01:27:37;;;;;;;5.78;3.42;;;;;;;;;;5091919;28;20047;-70
2022/05/19 01:30:04;;;;;;;3.92;3.13;;;;;;;;;;5085865;28;20052;-70
2022/05/19 01:32:31;;;;;;;8.65;3.58;;;;;;;;;;5092019;28;20120;-70
2022/05/19 01:34:58;;;;;;;5.40;3.40;;;;;;;;;;5085326;28;20024;-71
2022/05/19 01:37:24;;;;;;;5.70;3.40;;;;;;;;;;5091166;28;20028;-69
2022/05/19 01:39:54;;;;;;;5.32;3.50;;;;;;;;;;5096440;28;20106;-70
2022/05/19 01:42:23;;;;;;;6.20;3.53;;;;;;;;;;5094868;28;20063;-66
2022/05/19 01:45:01;;;;;;;8.77;3.67;;;;;;;;;;5091250;28;20418;-68
2022/05/19 01:47:33;;;;;;;6.13;3.50;;;;;;;;;;5098701;28;20115;-70
2022/05/19 01:50:05;;;;;;;4.93;3.45;;;;;;;;;;5091979;28;20042;-71
2022/05/19 01:52:36;;;;;;;7.80;3.33;;;;;;;;;;5089030;28;20107;-70
2022/05/19 01:55:08;;;;;;;6.07;3.63;;;;;;;;;;5080996;28;20037;-69
2022/05/19 01:57:40;;;;;;;5.05;3.10;;;;;;;;;;5099231;28;20495;-70
2022/05/19 02:00:06;;;;;;;4.57;3.08;;;;;;;;;;5087187;28;20052;-70
2022/05/19 02:02:37;;;;;;;5.07;3.22;;;;;;;;;;5090484;28;20099;-69
2022/05/19 02:05:09;;;;;;;6.25;3.38;;;;;;;;;;5078746;28;20106;-68
2022/05/19 02:07:36;;;;;;;6.55;3.22;;;;;;;;;;5099182;28;20034;-70
2022/05/19 02:10:06;;;;;;;6.32;3.30;;;;;;;;;;5085028;28;20564;-69
2022/05/19 02:12:33;;;;;;;5.68;3.60;;;;;;;;;;5081358;28;20032;-70
2022/05/19 02:15:02;;;;;;;4.70;3.30;;;;;;;;;;5094679;28;20035;-67
2022/05/19 02:17:29;;;;;;;6.07;3.28;;;;;;;;;;5086003;28;20017;-70
2022/05/19 02:19:57;;;;;;;6.75;3.35;;;;;;;;;;5093293;28;20417;-67
2022/05/19 02:22:25;;;;;;;5.63;3.30;;;;;;;;;;5087947;28;20547;-69
2022/05/19 02:24:55;;;;;;;9.77;3.13;;;;;;;;;;5089867;28;20030;-71
2022/05/19 02:27:33;;;;;;;4.20;3.08;;;;;;;;;;5091980;28;20086;-69
2022/05/19 02:30:04;;;;;;;6.45;3.38;;;;;;;;;;5085967;28;20127;-70
2022/05/19 02:32:30;;;;;;;7.03;3.30;;;;;;;;;;5087262;28;20042;-67
2022/05/19 02:34:56;;;;;;;6.60;3.15;;;;;;;;;;5089423;28;20020;-71
2022/05/19 02:37:22;;;;;;;4.18;3.15;;;;;;;;;;5085288;28;20032;-71
2022/05/19 02:39:48;;;;;;;3.95;3.08;;;;;;;;;;5097781;28;20027;-69
2022/05/19 02:42:14;;;;;;;5.15;2.90;;;;;;;;;;5090816;28;20034;-68
2022/05/19 02:44:40;;;;;;;4.95;3.13;;;;;;;;;;5103258;28;20089;-70
2022/05/19 02:47:07;;;;;;;5.55;3.17;;;;;;;;;;5089783;28;20024;-66
2022/05/19 02:49:33;;;;;;;4.57;3.00;;;;;;;;;;5099488;28;20061;-70
2022/05/19 02:51:59;;;;;;;5.93;3.25;;;;;;;;;;5091323;27;20063;-69
2022/05/19 02:54:25;;;;;;;9.23;3.40;;;;;;;;;;5087883;28;20562;-69
2022/05/19 02:56:51;;;;;;;6.65;3.00;;;;;;;;;;5084777;28;20431;-70
2022/05/19 02:59:17;;;;;;;4.25;2.85;;;;;;;;;;5087480;28;20437;-71
2022/05/19 03:01:43;;;;;;;4.05;2.97;;;;;;;;;;5092333;28;20039;-68
2022/05/19 03:04:09;;;;;;;8.23;3.20;;;;;;;;;;5100436;28;20016;-69
2022/05/19 03:06:35;;;;;;;4.63;2.78;;;;;;;;;;5089236;28;20456;-70
2022/05/19 03:09:01;;;;;;;4.65;2.88;;;;;;;;;;5083530;28;20028;-70
2022/05/19 03:11:27;;;;;;;5.28;2.83;;;;;;;;;;5079081;28;21057;-70
2022/05/19 03:13:53;;;;;;;5.85;2.83;;;;;;;;;;5078867;28;20030;-67
2022/05/19 03:16:19;;;;;;;4.82;3.53;;;;;;;;;;5080691;28;20031;-70
2022/05/19 03:18:45;;;;;;;5.70;3.13;;;;;;;;;;5081455;28;20077;-70
2022/05/19 03:21:11;;;;;;;7.05;3.10;;;;;;;;;;5094225;28;20464;-67
2022/05/19 03:23:37;;;;;;;6.55;3.15;;;;;;;;;;5082113;27;20529;-69
2022/05/19 03:26:03;;;;;;;7.32;3.35;;;;;;;;;;5089345;28;20411;-69
2022/05/19 03:28:29;;;;;;;5.90;3.30;;;;;;;;;;5081700;28;20021;-68
2022/05/19 03:30:55;;;;;;;6.95;2.80;;;;;;;;;;5085979;28;20020;-68
2022/05/19 03:33:21;;;;;;;6.20;3.35;;;;;;;;;;5096994;28;20027;-69
2022/05/19 03:35:55;;;;;;;7.22;3.30;;;;;;;;;;5088496;28;20035;-65
2022/05/19 03:38:21;;;;;;;3.97;2.83;;;;;;;;;;5085888;28;20024;-67
2022/05/19 03:40:47;;;;;;;7.40;3.10;;;;;;;;;;5096015;28;20522;-69
2022/05/19 03:43:13;;;;;;;5.40;3.40;;;;;;;;;;5090203;28;20027;-70
2022/05/19 03:45:39;;;;;;;5.57;3.05;;;;;;;;;;5093486;28;20020;-70
2022/05/19 03:48:06;;;;;;;8.10;3.40;;;;;;;;;;5083059;28;20055;-66
2022/05/19 03:50:32;;;;;;;6.40;3.30;;;;;;;;;;5094166;28;20364;-70
2022/05/19 03:52:58;;;;;;;6.22;3.20;;;;;;;;;;5093704;28;20035;-70
2022/05/19 03:55:24;;;;;;;7.22;3.13;;;;;;;;;;5091556;28;20077;-70
2022/05/19 03:57:50;;;;;;;6.43;3.50;;;;;;;;;;5097711;28;20024;-68
2022/05/19 04:00:18;;;;;;;3.60;2.97;;;;;;;;;;5083345;28;20028;-70
2022/05/19 04:02:44;;;;;;;5.68;2.95;;;;;;;;;;5091309;28;20261;-68
2022/05/19 04:05:10;;;;;;;4.80;3.30;;;;;;;;;;5088686;28;20016;-70
2022/05/19 04:07:37;;;;;;;6.85;3.20;;;;;;;;;;5095673;28;20027;-70
2022/05/19 04:10:04;;;;;;;7.43;2.90;;;;;;;;;;5083583;28;20423;-70
2022/05/19 04:12:30;;;;;;;4.32;3.10;;;;;;;;;;5085173;28;20077;-69
2022/05/19 04:14:56;;;;;;;5.50;3.22;;;;;;;;;;5085742;28;20024;-69
2022/05/19 04:17:22;;;;;;;6.82;3.03;;;;;;;;;;5094708;28;20028;-68
2022/05/19 04:19:48;;;;;;;8.13;3.35;;;;;;;;;;5089374;28;20018;-66
2022/05/19 04:22:14;;;;;;;9.38;3.20;;;;;;;;;;5083269;28;20392;-67
2022/05/19 04:24:40;;;;;;;3.78;2.88;;;;;;;;;;5081981;28;20189;-69
2022/05/19 04:27:06;;;;;;;6.63;3.17;;;;;;;;;;5095436;28;20111;-70
2022/05/19 04:29:32;;;;;;;5.57;3.00;;;;;;;;;;5093970;28;20099;-70
2022/05/19 04:31:58;;;;;;;6.32;2.97;;;;;;;;;;5088650;28;20123;-71
2022/05/19 04:34:24;;;;;;;6.22;3.03;;;;;;;;;;5081563;28;20040;-70
2022/05/19 04:36:50;;;;;;;5.18;3.10;;;;;;;;;;5083878;28;20033;-68
2022/05/19 04:39:16;;;;;;;5.88;3.20;;;;;;;;;;5096686;28;20387;-66
2022/05/19 04:41:42;;;;;;;5.85;2.97;;;;;;;;;;5097645;28;20440;-71
2022/05/19 04:44:07;;;;;;;4.63;3.03;;;;;;;;;;5089794;28;20478;-70
2022/05/19 04:46:33;;;;;;;4.90;2.75;;;;;;;;;;5083830;28;20526;-67
2022/05/19 04:48:59;;;;;;;4.50;3.10;;;;;;;;;;5092576;28;20032;-69
2022/05/19 04:51:25;;;;;;;8.68;3.17;;;;;;;;;;5079063;28;20395;-70
2022/05/19 04:53:51;;;;;;;9.48;3.20;;;;;;;;;;5100239;28;20043;-68
2022/05/19 04:56:17;;;;;;;5.55;3.90;;;;;;;;;;5087553;28;20085;-69
2022/05/19 04:58:43;;;;;;;8.25;3.83;;;;;;;;;;5095138;28;20062;-70
2022/05/19 05:01:09;;;;;;;7.57;3.70;;;;;;;;;;5093371;28;20024;-67
2022/05/19 05:03:35;;;;;;;13.23;4.80;;;;;;;;;;5087051;28;20027;-72
2022/05/19 05:06:01;;;;;;;13.85;6.50;;;;;;;;;;5083492;28;20089;-76
2022/05/19 05:08:27;;;;;;;11.02;4.95;;;;;;;;;;5082991;28;20024;-66
2022/05/19 05:10:53;;;;;;;9.20;4.32;;;;;;;;;;5081905;28;20030;-66
2022/05/19 05:13:19;;;;;;;7.28;4.07;;;;;;;;;;5081212;28;20610;-65
2022/05/19 05:15:45;;;;;;;7.05;4.35;;;;;;;;;;5092497;28;20028;-66
2022/05/19 05:18:11;;;;;;;7.63;4.32;;;;;;;;;;5086931;28;20402;-66
2022/05/19 05:20:38;;;;;;;10.85;4.78;;;;;;;;;;5084526;28;20029;-66
2022/05/19 05:23:04;;;;;;;11.15;4.15;;;;;;;;;;5085368;28;20055;-66
2022/05/19 05:25:30;;;;;;;7.60;4.43;;;;;;;;;;5082239;28;20112;-66
2022/05/19 05:27:57;;;;;;;9.25;4.70;;;;;;;;;;5101338;28;20053;-66
2022/05/19 05:30:23;;;;;;;9.05;4.50;;;;;;;;;;5081877;28;20031;-66
2022/05/19 05:32:49;;;;;;;8.82;4.35;;;;;;;;;;5080989;28;20050;-66
2022/05/19 05:35:15;;;;;;;8.82;4.00;;;;;;;;;;5074521;28;20035;-66
2022/05/19 05:37:41;;;;;;;8.93;3.67;;;;;;;;;;5076998;28;20705;-66
2022/05/19 05:40:10;;;;;;;8.15;4.38;;;;;;;;;;5089568;28;20028;-66
2022/05/19 05:42:36;;;;;;;8.07;4.22;;;;;;;;;;5083439;28;20012;-65
2022/05/19 05:45:03;;;;;;;6.85;4.20;;;;;;;;;;5086837;28;20081;-66
2022/05/19 05:47:29;;;;;;;7.72;4.22;;;;;;;;;;5082439;28;20548;-66
2022/05/19 05:49:55;;;;;;;8.77;4.05;;;;;;;;;;5091793;28;20051;-66
2022/05/19 05:52:21;;;;;;;5.75;3.97;;;;;;;;;;5086146;28;20032;-66
2022/05/19 05:54:47;;;;;;;8.02;4.43;;;;;;;;;;5100382;28;20583;-66
2022/05/19 05:57:14;;;;;;;10.18;4.63;;;;;;;;;;5093289;28;20032;-66
2022/05/19 05:59:41;;;;;;;8.50;4.40;;;;;;;;;;5082116;28;20012;-66
2022/05/19 06:02:07;;;;;;;5.28;4.13;;;;;;;;;;5083661;28;20027;-69
2022/05/19 06:04:33;;;;;;;6.82;3.50;;;;;;;;;;5089879;28;20028;-68
2022/05/19 06:07:00;;;;;;;6.57;4.20;;;;;;;;;;5091185;28;20023;-69
2022/05/19 06:09:26;;;;;;;7.10;3.90;;;;;;;;;;5102755;28;20035;-68
2022/05/19 06:11:52;;;;;;;4.82;3.65;;;;;;;;;;5096320;28;20073;-69
2022/05/19 06:14:18;;;;;;;7.13;3.80;;;;;;;;;;5082583;28;20024;-65
2022/05/19 06:16:44;;;;;;;6.72;3.50;;;;;;;;;;5080556;28;20026;-67
2022/05/19 06:19:10;;;;;;;11.00;3.83;;;;;;;;;;5087497;28;20094;-69
2022/05/19 06:21:39;;;;;;;10.05;3.50;;;;;;;;;;5083704;28;20073;-69
2022/05/19 06:24:08;;;;;;;9.60;4.55;;;;;;;;;;5077097;28;20094;-65
2022/05/19 06:26:34;;;;;;;27.15;21.75;;;;;;;;;;5076989;28;20039;-67
2022/05/19 06:29:00;;;;;;;9.57;4.15;;;;;;;;;;5083007;28;20044;-67
2022/05/19 06:31:26;;;;;;;5.65;3.47;;;;;;;;;;5083993;28;20369;-67
2022/05/19 06:33:51;;;;;;;9.35;3.22;;;;;;;;;;5083368;28;20031;-67
2022/05/19 06:36:17;;;;;;;6.75;3.42;;;;;;;;;;5077736;28;20032;-68
2022/05/19 06:38:43;;;;;;;6.22;3.35;;;;;;;;;;5076546;28;21107;-67
2022/05/19 06:43:54;;;;;;;3.28;2.97;;;;;;;;;;5079483;28;20032;-67
2022/05/19 06:46:20;;;;;;;6.25;3.65;;;;;;;;;;5080085;28;20431;-68
2022/05/19 06:48:46;;;;;;;4.63;3.10;;;;;;;;;;5093631;28;20024;-66
2022/05/19 06:51:12;;;;;;;6.90;3.35;;;;;;;;;;5085318;28;20062;-67
2022/05/19 06:53:38;;;;;;;7.90;3.60;;;;;;;;;;5087922;28;20057;-67
2022/05/19 06:56:04;;;;;;;8.38;3.35;;;;;;;;;;5074884;28;20059;-67
2022/05/19 06:58:30;;;;;;;5.63;3.42;;;;;;;;;;5086830;28;20037;-65
2022/05/19 07:00:56;;;;;;;4.97;2.83;;;;;;;;;;5081235;28;20369;-68
2022/05/19 07:03:22;;;;;;;5.88;3.40;;;;;;;;;;5092406;28;20062;-66
2022/05/19 07:05:48;;;;;;;5.07;3.35;;;;;;;;;;5078326;28;20448;-65
2022/05/19 07:08:14;;;;;;;6.45;3.17;;;;;;;;;;5076121;28;20047;-67
2022/05/19 07:10:40;;;;;;;7.30;3.45;;;;;;;;;;5076875;28;20418;-67
2022/05/19 07:13:06;;;;;;;7.82;3.28;;;;;;;;;;5083978;28;20028;-65
2022/05/19 07:15:32;;;;;;;7.75;3.28;;;;;;;;;;5078309;28;20434;-66
2022/05/19 07:17:58;;;;;;;8.93;3.28;;;;;;;;;;5078438;28;20029;-65
2022/05/19 07:23:11;;;;;;;5.45;3.60;;;;;;;;;;5093528;28;20501;-65
2022/05/19 07:25:37;;;;;;;5.93;3.13;;;;;;;;;;5082164;28;20429;-66
2022/05/19 07:28:03;;;;;;;7.93;5.25;;;;;;;;;;5090812;28;20035;-67
2022/05/19 07:30:29;;;;;;;9.48;7.68;;;;;;;;;;5096314;28;20042;-62
2022/05/19 07:32:55;;;;;;;22.88;17.30;;;;;;;;;;5086828;28;20040;-71
2022/05/19 07:35:22;;;;;;;4.68;3.40;;;;;;;;;;5085866;28;20077;-72
2022/05/19 07:37:48;;;;;;;7.72;3.55;;;;;;;;;;5091161;28;20384;-69
2022/05/19 07:40:14;;;;;;;10.48;4.03;;;;;;;;;;5093027;28;20025;-69
2022/05/19 07:42:41;;;;;;;8.55;3.50;;;;;;;;;;5078645;28;20035;-71
2022/05/19 07:45:07;;;;;;;10.15;3.50;;;;;;;;;;5077278;28;20119;-70
2022/05/19 07:47:33;;;;;;;9.77;3.38;;;;;;;;;;5088208;28;20020;-70
2022/05/19 07:49:59;;;;;;;6.20;3.28;;;;;;;;;;5079179;28;20042;-71
2022/05/19 07:52:26;;;;;;;7.68;3.42;;;;;;;;;;5079124;28;20058;-67
2022/05/19 07:54:53;;;;;;;9.88;3.78;;;;;;;;;;5084620;28;20032;-71
2022/05/19 07:57:19;;;;;;;4.88;3.40;;;;;;;;;;5071612;28;20028;-71
2022/05/19 07:59:45;;;;;;;5.63;3.47;;;;;;;;;;5084994;28;20023;-71
2022/05/19 08:02:12;;;;;;;9.40;3.45;;;;;;;;;;5083737;28;20039;-67
2022/05/19 08:04:38;;;;;;;7.70;3.30;;;;;;;;;;5083396;28;20032;-71
2022/05/19 08:07:04;;;;;;;12.52;4.30;;;;;;;;;;5086824;28;20031;-71
2022/05/19 08:12:16;;;;;;;5.68;2.90;;;;;;;;;;5083296;28;20651;-68
2022/05/19 08:17:27;;;;;;;10.38;3.60;;;;;;;;;;5083055;28;20101;-71
2022/05/19 08:19:53;;;;;;;7.43;3.72;;;;;;;;;;5088986;28;20111;-66
2022/05/19 08:22:19;;;;;;;7.70;3.60;;;;;;;;;;5088565;28;20099;-72
2022/05/19 08:24:49;;;;;;;9.15;3.50;;;;;;;;;;5082293;28;20016;-70
2022/05/19 08:27:15;;;;;;;7.07;3.50;;;;;;;;;;5098227;28;20785;-71
2022/05/19 08:29:41;;;;;;;7.20;3.35;;;;;;;;;;5097737;28;20115;-71
2022/05/19 08:32:07;;;;;;;6.95;2.97;;;;;;;;;;5098692;28;20119;-70
2022/05/19 08:34:33;;;;;;;7.68;3.17;;;;;;;;;;5088244;28;20046;-71
2022/05/19 08:36:59;;;;;;;6.28;3.28;;;;;;;;;;5093119;28;20032;-71
2022/05/19 08:39:25;;;;;;;5.78;3.20;;;;;;;;;;5093530;28;20030;-72
2022/05/19 08:41:51;;;;;;;8.10;3.10;;;;;;;;;;5085514;28;20036;-71
2022/05/19 08:44:22;;;;;;;6.32;3.42;;;;;;;;;;5090063;28;20659;-72
2022/05/19 08:46:50;;;;;;;7.20;2.97;;;;;;;;;;5078210;28;20085;-71
2022/05/19 08:49:18;;;;;;;6.28;2.97;;;;;;;;;;5096472;28;20111;-71
2022/05/19 08:51:49;;;;;;;14.40;8.50;;;;;;;;;;5090027;28;20450;-59
2022/05/19 08:54:18;;;;;;;8.23;4.57;;;;;;;;;;5090158;28;20427;-70
2022/05/19 08:56:56;;;;;;;8.32;3.05;;;;;;;;;;5082220;28;20570;-70
2022/05/19 08:59:40;;;;;;;10.00;3.40;;;;;;;;;;5076392;28;20024;-72
2022/05/19 09:02:12;;;;;;;6.65;2.80;;;;;;;;;;5089553;28;20106;-71
2022/05/19 09:04:38;;;;;;;6.97;3.25;;;;;;;;;;5097351;28;20360;-67
2022/05/19 09:10:13;;;;;;;5.75;3.08;;;;;;;;;;5091578;28;20164;-70
2022/05/19 09:12:39;;;;;;;6.72;3.70;;;;;;;;;;5089284;28;20035;-70
2022/05/19 09:15:07;;;;;;;7.18;2.92;;;;;;;;;;5081476;28;20757;-71
2022/05/19 09:17:36;;;;;;;6.63;3.58;;;;;;;;;;5088531;28;20130;-69
2022/05/19 09:20:05;;;;;;;6.32;3.17;;;;;;;;;;5079906;28;20035;-69
2022/05/19 09:22:33;;;;;;;9.68;3.30;;;;;;;;;;5085295;28;20028;-68
2022/05/19 09:25:03;;;;;;;7.38;3.42;;;;;;;;;;5083371;28;20399;-70
2022/05/19 09:27:29;;;;;;;6.45;3.20;;;;;;;;;;5089296;28;20028;-69
2022/05/19 09:29:56;;;;;;;5.70;3.20;;;;;;;;;;5089444;28;20035;-70
2022/05/19 09:32:26;;;;;;;10.32;3.30;;;;;;;;;;5095540;28;20031;-71
2022/05/19 09:34:53;;;;;;;6.22;3.28;;;;;;;;;;5084551;28;20030;-70
2022/05/19 09:37:19;;;;;;;7.25;3.05;;;;;;;;;;5085518;28;20705;-71
2022/05/19 09:39:53;;;;;;;7.85;3.35;;;;;;;;;;5090009;28;20027;-68
2022/05/19 09:42:19;;;;;;;;;;;;;;;;;;5087179;28;20395;-67
2022/05/19 09:44:50;;;;;;;8.68;3.13;;;;;;;;;;5085977;28;20433;-68
2022/05/19 09:47:19;;;;;;;4.65;3.05;;;;;;;;;;5097985;28;20032;-67
2022/05/19 09:49:50;;;;;;;8.23;4.10;;;;;;;;;;5085762;28;20058;-70
2022/05/19 09:52:17;;;;;;;5.88;3.60;;;;;;;;;;5090090;28;20123;-67
2022/05/19 09:54:45;;;;;;;8.15;3.08;;;;;;;;;;5087418;28;20107;-71
2022/05/19 09:57:14;;;;;;;7.40;3.03;;;;;;;;;;5094901;28;20036;-70
2022/05/19 09:59:46;;;;;;;8.68;3.70;;;;;;;;;;5088133;28;20406;-70
2022/05/19 10:02:18;;;;;;;6.32;3.25;;;;;;;;;;5087158;28;20106;-69
2022/05/19 10:04:55;;;;;;;6.57;3.22;;;;;;;;;;5097456;28;20081;-70
2022/05/19 10:07:26;;;;;;;6.38;3.50;;;;;;;;;;5082279;28;20106;-70
2022/05/19 10:09:55;;;;;;;6.85;2.97;;;;;;;;;;5098212;28;20115;-70
2022/05/19 10:12:24;;;;;;;11.00;3.30;;;;;;;;;;5093538;28;20020;-69
2022/05/19 10:14:57;;;;;;;7.32;3.45;;;;;;;;;;5076512;28;20039;-68
2022/05/19 10:17:23;;;;;;;;;;;;;;;;;;5089864;28;20531;-67
2022/05/19 10:19:57;;;;;;;8.43;3.88;;;;;;;;;;5090263;28;20007;-67
2022/05/19 10:22:30;;;;;;;5.82;3.03;;;;;;;;;;5093932;28;20286;-70
2022/05/19 10:25:06;;;;;;;5.38;3.20;;;;;;;;;;5081592;28;20027;-70
2022/05/19 10:31:03;;;;;;;5.53;2.85;;;;;;;;;;5077374;28;20151;-70
2022/05/19 10:33:39;;;;;;;7.45;2.92;;;;;;;;;;5090368;28;20567;-69
2022/05/19 10:36:14;;;;;;;5.60;2.90;;;;;;;;;;5089584;28;20024;-69
2022/05/19 10:38:44;;;;;;;8.90;3.10;;;;;;;;;;5075129;28;20032;-70
2022/05/19 10:41:17;;;;;;;5.97;2.88;;;;;;;;;;5088621;28;20024;-69
2022/05/19 10:44:00;;;;;;;5.95;2.83;;;;;;;;;;5080222;28;20035;-70
2022/05/19 10:46:29;;;;;;;9.07;3.08;;;;;;;;;;5098151;28;20488;-69
2022/05/19 10:49:12;;;;;;;7.80;2.97;;;;;;;;;;5085983;28;20028;-67
2022/05/19 10:51:44;;;;;;;7.28;3.15;;;;;;;;;;5086890;28;20039;-69
2022/05/19 10:54:36;;;;;;;8.52;2.90;;;;;;;;;;5087588;28;20031;-66
2022/05/19 10:57:18;;;;;;;8.38;3.38;;;;;;;;;;5079554;28;20053;-69
2022/05/19 10:59:57;;;;;;;5.40;2.67;;;;;;;;;;5081124;28;20076;-69
2022/05/19 11:02:36;;;;;;;7.13;3.25;;;;;;;;;;5078902;28;20059;-68
2022/05/19 11:05:02;;;;;;;3.90;2.53;;;;;;;;;;5091414;28;20031;-69
2022/05/19 11:07:29;;;;;;;6.60;3.33;;;;;;;;;;5084145;28;20028;-68
2022/05/19 11:10:21;;;;;;;9.65;2.97;;;;;;;;;;5075270;28;20021;-70
2022/05/19 11:12:50;;;;;;;9.10;3.75;;;;;;;;;;5079913;28;20368;-69
2022/05/19 11:15:31;;;;;;;7.43;3.20;;;;;;;;;;5079083;28;20028;-68
2022/05/19 11:17:57;;;;;;;6.20;3.10;;;;;;;;;;5086730;28;20024;-66
2022/05/19 11:20:26;;;;;;;6.13;3.20;;;;;;;;;;5084966;28;20074;-67
2022/05/19 11:22:54;;;;;;;8.23;3.03;;;;;;;;;;5089294;28;20015;-68
2022/05/19 11:28:12;;;;;;;8.45;3.30;;;;;;;;;;5091722;28;20070;-70
2022/05/19 11:30:40;;;;;;;4.93;3.03;;;;;;;;;;5089333;28;20032;-68
2022/05/19 11:33:10;;;;;;;8.57;3.20;;;;;;;;;;5096154;28;20023;-68
2022/05/19 11:35:39;;;;;;;7.07;3.30;;;;;;;;;;5075759;28;20537;-69
2022/05/19 11:38:16;;;;;;;7.35;3.25;;;;;;;;;;5084445;28;20039;-70
2022/05/19 11:40:46;;;;;;;7.38;3.45;;;;;;;;;;5084371;28;20035;-67
2022/05/19 11:43:18;;;;;;;8.60;3.33;;;;;;;;;;5086025;28;20017;-69
2022/05/19 11:45:53;;;;;;;6.18;3.03;;;;;;;;;;5086697;28;20082;-67
2022/05/19 11:57:15;;;;;;;7.55;3.75;;;;;;;;;;5084639;28;20039;-70
2022/05/19 11:59:46;;;;;;;7.05;3.13;;;;;;;;;;5084443;28;20073;-68
2022/05/19 12:02:14;;;;;;;7.25;3.20;;;;;;;;;;5087714;28;20020;-70
2022/05/19 12:04:41;;;;;;;8.82;3.08;;;;;;;;;;5086511;28;20110;-71
2022/05/19 12:07:15;;;;;;;15.38;3.42;;;;;;;;;;5088410;28;20021;-70
2022/05/19 12:09:44;;;;;;;6.20;3.20;;;;;;;;;;5077373;28;20059;-68
2022/05/19 12:12:20;;;;;;;5.55;3.20;;;;;;;;;;5082033;28;20051;-71
2022/05/19 12:14:50;;;;;;;4.65;3.17;;;;;;;;;;5092962;28;20032;-67
2022/05/19 12:17:29;;;;;;;6.65;3.35;;;;;;;;;;5084251;28;20024;-71
2022/05/19 12:19:56;;;;;;;9.25;3.53;;;;;;;;;;5090422;28;20027;-68
2022/05/19 12:22:24;;;;;;;7.47;3.38;;;;;;;;;;5086771;28;20365;-70
2022/05/19 12:25:07;;;;;;;7.30;3.17;;;;;;;;;;5090031;28;20024;-71
2022/05/19 12:27:36;;;;;;;5.10;3.38;;;;;;;;;;5084060;28;20525;-71
2022/05/19 12:33:22;;;;;;;33.90;25.73;;;;;;;;;;5082264;28;20039;-69
2022/05/19 12:35:49;;;;;;;6.40;3.13;;;;;;;;;;5089315;28;20176;-67
2022/05/19 12:38:29;;;;;;;4.43;3.15;;;;;;;;;;5076762;28;20279;-69
2022/05/19 12:40:57;;;;;;;11.23;3.25;;;;;;;;;;5087203;28;20024;-68
2022/05/19 12:43:24;;;;;;;5.10;3.22;;;;;;;;;;5090365;28;20020;-66
2022/05/19 12:45:55;;;;;;;10.13;3.30;;;;;;;;;;5087790;28;20016;-69
2022/05/19 12:48:25;;;;;;;7.95;3.55;;;;;;;;;;5089854;28;20040;-69
2022/05/19 12:50:53;;;;;;;46.33;4.25;;;;;;;;;;5085047;28;20031;-66
2022/05/19 12:53:22;;;;;;;65.38;4.63;;;;;;;;;;5095058;28;20016;-68
2022/05/19 12:55:50;;;;;;;65.60;4.20;;;;;;;;;;5076379;28;20024;-67
2022/05/19 12:58:35;;;;;;;37.15;3.28;;;;;;;;;;5088970;28;20077;-68
2022/05/19 13:01:29;;;;;;;23.20;2.33;;;;;;;;;;5078279;28;20028;-70
2022/05/19 13:04:24;;;;;;;33.53;2.47;;;;;;;;;;5084271;28;20060;-65
2022/05/19 13:06:56;;;;;;;15.40;1.90;;;;;;;;;;5078672;28;20434;-64
2022/05/19 13:09:26;;;;;;;11.95;1.98;;;;;;;;;;5079831;28;20048;-63
2022/05/19 13:11:54;;;;;;;13.57;2.20;;;;;;;;;;5084157;28;20070;-61
2022/05/19 13:14:23;;;;;;;16.27;2.90;;;;;;;;;;5098005;28;20127;-65
2022/05/19 13:16:51;;;;;;;14.50;2.78;;;;;;;;;;5084685;28;20034;-65
2022/05/19 13:19:30;;;;;;;11.60;2.40;;;;;;;;;;5090874;28;20055;-62
2022/05/19 13:22:02;;;;;;;8.18;1.70;;;;;;;;;;5084667;28;20050;-61
2022/05/19 13:24:29;;;;;;;10.32;2.10;;;;;;;;;;5083392;28;20012;-61
2022/05/19 13:32:33;;;;;;;7.82;1.35;;;;;;;;;;5095946;28;21818;-61
2022/05/19 13:35:01;;;;;;;6.45;1.58;;;;;;;;;;5086527;28;20028;-60
2022/05/19 13:37:31;;;;;;;8.05;1.92;;;;;;;;;;5093053;28;20023;-62
2022/05/19 13:40:10;;;;;;;8.18;1.80;;;;;;;;;;5085651;28;20471;-61
2022/05/19 13:42:37;;;;;;;6.03;1.70;;;;;;;;;;5100117;28;20028;-60
2022/05/19 13:45:03;;;;;;;5.05;1.67;;;;;;;;;;5093036;28;20028;-62
2022/05/19 13:47:30;;;;;;;4.43;1.70;;;;;;;;;;5094497;28;20042;-62
2022/05/19 13:49:57;;;;;;;7.15;1.92;;;;;;;;;;5095297;28;20030;-62
2022/05/19 13:52:24;;;;;;;4.60;1.65;;;;;;;;;;5095710;28;20411;-63
2022/05/19 13:54:50;;;;;;;10.57;2.10;;;;;;;;;;5086416;28;20621;-61
2022/05/19 13:57:24;;;;;;;4.90;1.45;;;;;;;;;;5083929;28;20692;-63
2022/05/19 13:59:51;;;;;;;9.00;1.55;;;;;;;;;;5086635;28;20019;-62
2022/05/19 14:02:28;;;;;;;6.43;1.90;;;;;;;;;;5090104;28;20052;-62
2022/05/19 14:04:54;;;;;;;6.60;1.95;;;;;;;;;;5090085;28;20689;-63
2022/05/19 14:07:21;;;;;;;6.60;1.75;;;;;;;;;;5083036;27;20064;-63
2022/05/19 14:09:55;;;;;;;7.53;1.90;;;;;;;;;;5082653;28;20486;-63
2022/05/19 14:12:22;;;;;;;5.60;2.08;;;;;;;;;;5087790;28;20051;-64
2022/05/19 14:14:49;;;;;;;5.75;1.77;;;;;;;;;;5102792;28;20467;-64
2022/05/19 14:17:16;;;;;;;4.22;1.85;;;;;;;;;;5080890;28;20035;-63
2022/05/19 14:19:42;;;;;;;8.23;1.80;;;;;;;;;;5095793;28;20056;-63
2022/05/19 14:22:18;;;;;;;5.90;2.00;;;;;;;;;;5091396;28;20024;-62
2022/05/19 14:24:48;;;;;;;4.18;1.70;;;;;;;;;;5079731;28;20055;-63
2022/05/19 14:27:16;;;;;;;5.88;2.00;;;;;;;;;;5078987;28;20616;-63
2022/05/19 14:29:43;;;;;;;7.78;1.88;;;;;;;;;;5091873;28;20540;-62
2022/05/19 14:32:38;;;;;;;6.05;2.03;;;;;;;;;;5090506;28;20030;-63
2022/05/19 14:35:17;;;;;;;4.93;1.80;;;;;;;;;;5083914;28;20097;-62
2022/05/19 14:37:44;;;;;;;6.18;1.90;;;;;;;;;;5087566;28;20449;-63
2022/05/19 14:43:11;;;;;;;9.35;2.70;;;;;;;;;;5081211;28;20046;-63
2022/05/19 14:45:41;;;;;;;4.57;2.03;;;;;;;;;;5083948;28;20080;-64
2022/05/19 14:48:08;;;;;;;4.40;2.00;;;;;;;;;;5086321;28;20542;-64
2022/05/19 14:50:35;;;;;;;5.22;2.08;;;;;;;;;;5083593;28;20024;-64
2022/05/19 14:53:02;;;;;;;3.63;1.98;;;;;;;;;;5080025;28;20488;-65
2022/05/19 14:55:45;;;;;;;3.38;1.65;;;;;;;;;;5091163;28;20049;-65
2022/05/19 14:58:13;;;;;;;5.10;1.93;;;;;;;;;;5094283;28;20015;-66
2022/05/19 15:00:39;;;;;;;4.82;1.67;;;;;;;;;;5090606;28;20029;-66
2022/05/19 15:03:05;;;;;;;5.30;2.00;;;;;;;;;;5093933;28;20036;-66
2022/05/19 15:05:32;;;;;;;13.20;2.20;;;;;;;;;;5096977;28;20031;-66
2022/05/19 15:08:03;;;;;;;4.95;2.10;;;;;;;;;;5079623;28;20023;-65
2022/05/19 15:10:30;;;;;;;2.95;2.03;;;;;;;;;;5078676;28;20032;-66
2022/05/19 15:12:57;;;;;;;3.75;1.90;;;;;;;;;;5081735;28;20095;-66
2022/05/19 15:15:23;;;;;;;5.65;2.13;;;;;;;;;;5100396;28;20049;-66
2022/05/19 15:17:49;;;;;;;6.63;1.98;;;;;;;;;;5084957;28;20027;-67
2022/05/19 15:20:20;;;;;;;3.85;2.13;;;;;;;;;;5092740;28;20383;-65
2022/05/19 15:22:47;;;;;;;6.13;2.45;;;;;;;;;;5087034;28;20032;-67
2022/05/19 15:25:13;;;;;;;5.07;2.70;;;;;;;;;;5081526;28;20020;-66
2022/05/19 15:27:40;;;;;;;8.10;2.10;;;;;;;;;;5084558;28;20031;-67
2022/05/19 15:30:08;;;;;;;4.03;2.13;;;;;;;;;;5080667;28;20031;-67
2022/05/19 15:32:34;;;;;;;6.80;2.40;;;;;;;;;;5086674;28;20391;-67